Time;durP1;ratioP1;P1;durP2;ratioP2;P2;SDS_P1;SDS_P2;PMS_P1;PMS_P2;Temp;Humidity;BMP_temperature;BMP_pressure;BME280_temperature;BME280_humidity;BME280_pressure;Samples;Min_cycle;Max_cycle;Signal;HPM_P1;HPM_P2
2021/07/15 00:00:48;;;;;;;2.30;1.30;;;19.00;99.90;;;;;;5037451;28;20390;-75
2021/07/15 00:03:17;;;;;;;1.50;1.07;;;19.20;99.90;;;;;;5037312;28;20430;-75
2021/07/15 00:05:43;;;;;;;1.30;0.80;;;19.10;99.90;;;;;;5037995;28;20407;-75
2021/07/15 00:08:14;;;;;;;1.00;0.90;;;19.00;99.90;;;;;;5037371;28;20400;-75
2021/07/15 00:10:57;;;;;;;1.35;1.13;;;19.00;99.90;;;;;;5037150;28;20382;-76
2021/07/15 00:13:23;;;;;;;1.20;1.00;;;19.30;99.90;;;;;;5037784;28;20737;-74
2021/07/15 00:15:52;;;;;;;0.80;0.80;;;19.30;99.90;;;;;;5037872;28;20462;-75
2021/07/15 00:18:35;;;;;;;1.50;0.90;;;19.30;99.90;;;;;;5038862;28;20391;-76
2021/07/15 00:21:03;;;;;;;2.00;1.10;;;19.30;99.90;;;;;;5037875;28;20375;-75
2021/07/15 00:23:28;;;;;;;1.65;0.80;;;19.30;99.90;;;;;;5036731;28;20395;-76
2021/07/15 00:25:55;;;;;;;1.10;1.03;;;19.30;99.90;;;;;;5036737;28;20414;-76
2021/07/15 00:28:20;;;;;;;1.15;1.02;;;19.30;99.90;;;;;;5036951;28;20386;-74
2021/07/15 00:30:47;;;;;;;1.40;1.08;;;19.30;99.90;;;;;;5036574;28;20383;-76
2021/07/15 00:33:12;;;;;;;1.67;1.55;;;19.30;99.90;;;;;;5036739;28;20465;-75
2021/07/15 00:35:38;;;;;;;1.70;1.10;;;19.30;99.90;;;;;;5036820;28;20470;-76
2021/07/15 00:38:08;;;;;;;1.25;0.70;;;19.30;99.90;;;;;;5036802;28;20896;-76
2021/07/15 00:40:35;;;;;;;1.00;0.87;;;19.50;99.90;;;;;;5036698;28;20391;-76
2021/07/15 00:43:01;;;;;;;1.70;0.93;;;19.50;99.90;;;;;;5036609;28;20410;-76
2021/07/15 00:45:26;;;;;;;0.90;0.90;;;19.50;99.90;;;;;;5035190;28;20900;-75
2021/07/15 00:47:52;;;;;;;1.70;1.40;;;19.40;99.90;;;;;;5015844;28;20387;-75
2021/07/15 00:50:20;;;;;;;1.30;0.90;;;19.30;99.90;;;;;;5016325;28;20384;-76
2021/07/15 00:52:47;;;;;;;2.00;1.00;;;19.20;99.90;;;;;;5033424;28;20383;-75
2021/07/15 00:55:25;;;;;;;0.90;0.90;;;19.20;99.90;;;;;;5033558;28;20724;-74
2021/07/15 00:57:50;;;;;;;0.70;0.70;;;19.20;99.90;;;;;;5033703;28;20387;-76
2021/07/15 01:00:17;;;;;;;3.00;0.90;;;19.30;99.90;;;;;;5033968;28;20463;-74
2021/07/15 01:02:43;;;;;;;1.20;1.10;;;19.30;99.90;;;;;;5033426;28;20457;-75
2021/07/15 01:05:19;;;;;;;1.17;0.80;;;19.40;99.90;;;;;;5033369;28;20399;-74
2021/07/15 01:07:45;;;;;;;2.10;1.40;;;19.60;99.90;;;;;;5033669;28;20395;-76
2021/07/15 01:10:13;;;;;;;1.00;0.90;;;19.60;99.90;;;;;;5033689;28;20383;-75
2021/07/15 01:12:50;;;;;;;1.45;1.15;;;19.60;99.90;;;;;;5036089;28;20745;-76
2021/07/15 01:15:21;;;;;;;0.95;0.77;;;19.50;99.90;;;;;;5033492;28;20891;-75
2021/07/15 01:17:53;;;;;;;0.80;0.60;;;19.50;99.90;;;;;;5032851;28;20880;-76
2021/07/15 01:20:45;;;;;;;2.50;1.30;;;19.50;99.90;;;;;;5032603;28;20383;-76
2021/07/15 01:23:30;;;;;;;1.50;1.02;;;19.50;99.90;;;;;;5032675;28;20397;-76
2021/07/15 01:26:01;;;;;;;1.50;1.40;;;19.50;99.90;;;;;;5032454;28;20398;-76
2021/07/15 01:28:47;;;;;;;1.25;0.88;;;19.50;99.90;;;;;;5032593;28;20841;-77
2021/07/15 01:31:14;;;;;;;1.50;1.00;;;19.40;99.90;;;;;;5032266;28;20395;-76
2021/07/15 01:33:40;;;;;;;1.50;0.90;;;19.30;99.90;;;;;;5014988;28;20422;-76
2021/07/15 01:36:12;;;;;;;1.73;0.90;;;19.20;99.90;;;;;;5032478;28;20388;-76
2021/07/15 01:38:53;;;;;;;1.40;1.00;;;19.20;99.90;;;;;;5032814;28;20375;-76
2021/07/15 01:41:31;;;;;;;2.28;1.60;;;19.10;99.90;;;;;;5032763;28;20877;-76
2021/07/15 01:44:05;;;;;;;0.80;0.70;;;19.00;99.90;;;;;;5014921;28;20407;-76
2021/07/15 01:46:32;;;;;;;0.80;0.80;;;19.00;99.90;;;;;;5032486;28;20478;-77
2021/07/15 01:48:57;;;;;;;0.70;0.70;;;19.00;99.90;;;;;;5032436;28;20379;-76
2021/07/15 01:51:24;;;;;;;1.70;1.60;;;19.10;99.90;;;;;;5032316;28;20386;-76
2021/07/15 01:53:51;;;;;;;1.40;0.80;;;19.10;99.90;;;;;;5014411;28;20856;-76
2021/07/15 01:56:18;;;;;;;0.70;0.60;;;19.10;99.90;;;;;;5031715;28;20541;-75
2021/07/15 01:58:46;;;;;;;0.80;0.60;;;19.20;99.90;;;;;;5032141;28;20394;-76
2021/07/15 02:01:13;;;;;;;26.00;1.83;;;19.30;99.90;;;;;;5031948;28;20391;-77
2021/07/15 02:03:42;;;;;;;0.70;0.60;;;19.40;99.90;;;;;;5031817;28;20461;-76
2021/07/15 02:06:09;;;;;;;0.90;0.70;;;19.40;99.90;;;;;;5031903;28;20418;-76
2021/07/15 02:08:35;;;;;;;1.05;0.60;;;19.40;99.90;;;;;;5031775;28;20402;-76
2021/07/15 02:11:02;;;;;;;0.80;0.70;;;19.40;99.90;;;;;;5031887;28;20472;-77
2021/07/15 02:13:28;;;;;;;0.70;0.50;;;19.40;99.90;;;;;;5032211;28;20744;-76
2021/07/15 02:15:57;;;;;;;1.00;0.80;;;19.60;99.90;;;;;;5033178;28;20495;-76
2021/07/15 02:18:24;;;;;;;1.98;0.68;;;19.40;99.90;;;;;;5035545;28;20422;-76
2021/07/15 02:20:52;;;;;;;0.70;0.60;;;19.40;99.90;;;;;;5035908;28;20414;-76
2021/07/15 02:23:18;;;;;;;1.00;0.70;;;19.40;99.90;;;;;;5035963;28;20746;-76
2021/07/15 02:25:48;;;;;;;1.50;0.90;;;19.50;99.90;;;;;;5033227;28;20399;-76
2021/07/15 02:28:15;;;;;;;1.30;0.70;;;19.50;99.90;;;;;;5033699;28;20405;-76
2021/07/15 02:30:45;;;;;;;0.70;0.70;;;19.40;99.90;;;;;;5036595;28;20383;-75
2021/07/15 02:33:16;;;;;;;1.30;0.80;;;19.40;99.90;;;;;;5041299;28;20749;-74
2021/07/15 02:35:46;;;;;;;0.80;0.70;;;19.40;99.90;;;;;;5043053;28;20375;-75
2021/07/15 02:38:15;;;;;;;1.10;0.70;;;19.40;99.90;;;;;;5043740;28;20380;-74
2021/07/15 02:40:41;;;;;;;0.90;0.57;;;19.40;99.90;;;;;;5036789;28;20893;-76
2021/07/15 02:43:07;;;;;;;0.98;0.70;;;19.30;99.90;;;;;;5031658;28;20406;-76
2021/07/15 02:45:32;;;;;;;0.80;0.80;;;19.40;99.90;;;;;;5031407;28;20772;-75
2021/07/15 02:47:58;;;;;;;0.70;0.50;;;19.60;99.90;;;;;;5031053;28;20387;-76
2021/07/15 02:50:25;;;;;;;5.13;0.90;;;19.60;99.90;;;;;;5031053;28;20395;-76
2021/07/15 02:52:53;;;;;;;1.00;0.80;;;19.60;99.90;;;;;;5030877;28;20437;-76
2021/07/15 02:55:19;;;;;;;2.90;0.60;;;19.60;99.90;;;;;;5030935;28;20540;-77
2021/07/15 02:58:14;;;;;;;1.30;1.20;;;19.70;99.90;;;;;;5031004;28;20496;-77
2021/07/15 03:01:09;;;;;;;1.30;1.00;;;19.60;99.90;;;;;;5030644;28;20445;-77
2021/07/15 03:03:47;;;;;;;0.80;0.70;;;19.50;99.90;;;;;;5029697;28;20395;-76
2021/07/15 03:06:26;;;;;;;1.35;0.90;;;19.40;99.90;;;;;;5031270;28;20389;-77
2021/07/15 03:08:58;;;;;;;1.20;0.80;;;19.50;99.90;;;;;;5030152;28;20417;-77
2021/07/15 03:11:31;;;;;;;2.40;0.80;;;19.60;99.90;;;;;;5030957;28;20375;-77
2021/07/15 03:14:00;;;;;;;0.80;0.63;;;19.50;99.90;;;;;;5031855;28;20383;-76
2021/07/15 03:16:26;;;;;;;0.70;0.52;;;19.40;99.90;;;;;;5033775;28;20390;-76
2021/07/15 03:18:53;;;;;;;2.60;0.80;;;19.30;99.90;;;;;;5033551;28;20419;-77
2021/07/15 03:21:21;;;;;;;1.50;0.80;;;19.20;99.90;;;;;;5034139;28;20396;-77
2021/07/15 03:23:49;;;;;;;1.00;0.77;;;19.10;99.90;;;;;;5034035;28;20410;-77
2021/07/15 03:26:16;;;;;;;0.70;0.70;;;19.00;99.90;;;;;;5034276;28;20379;-76
2021/07/15 03:28:44;;;;;;;0.80;0.63;;;19.00;99.90;;;;;;5033017;28;20485;-76
2021/07/15 03:31:11;;;;;;;3.30;1.30;;;19.00;99.90;;;;;;5034115;28;20390;-76
2021/07/15 03:33:40;;;;;;;0.90;0.70;;;19.00;99.90;;;;;;5033562;28;20371;-76
2021/07/15 03:36:07;;;;;;;0.70;0.60;;;19.00;99.90;;;;;;5032745;28;20466;-76
2021/07/15 03:38:34;;;;;;;0.70;0.50;;;19.10;99.90;;;;;;5032465;28;20406;-77
2021/07/15 03:41:04;;;;;;;1.10;0.90;;;19.10;99.90;;;;;;5033043;28;20383;-77
2021/07/15 03:43:33;;;;;;;1.08;0.75;;;19.10;99.90;;;;;;5033834;28;20398;-77
2021/07/15 03:46:00;;;;;;;1.08;0.68;;;19.20;99.90;;;;;;5033192;28;20497;-76
2021/07/15 03:48:27;;;;;;;0.70;0.50;;;19.20;99.90;;;;;;5032977;28;20383;-76
2021/07/15 03:50:58;;;;;;;0.70;0.50;;;19.20;99.90;;;;;;5032665;28;20922;-76
2021/07/15 03:53:24;;;;;;;1.00;0.80;;;19.20;99.90;;;;;;5031740;28;20387;-76
2021/07/15 03:55:51;;;;;;;0.70;0.63;;;19.20;99.90;;;;;;5013615;28;20477;-76
2021/07/15 03:58:17;;;;;;;1.80;0.77;;;19.20;99.90;;;;;;5031294;28;20742;-76
2021/07/15 04:00:45;;;;;;;0.90;0.50;;;19.30;99.90;;;;;;5030612;28;20394;-76
2021/07/15 04:03:19;;;;;;;0.70;0.50;;;19.30;99.90;;;;;;5031028;28;20445;-76
2021/07/15 04:05:45;;;;;;;40.42;15.27;;;19.40;99.90;;;;;;5030991;28;20410;-76
2021/07/15 04:08:11;;;;;;;19.17;9.90;;;19.40;99.90;;;;;;5030556;28;20387;-76
2021/07/15 04:10:39;;;;;;;1.70;0.82;;;19.50;99.90;;;;;;5031054;28;20452;-76
2021/07/15 04:13:06;;;;;;;4.80;1.20;;;19.50;99.90;;;;;;5030707;28;20430;-76
2021/07/15 04:15:53;;;;;;;1.40;0.70;;;19.60;99.90;;;;;;5031404;28;20382;-77
2021/07/15 04:18:21;;;;;;;1.20;1.10;;;19.50;99.90;;;;;;5033522;28;20432;-77
2021/07/15 04:20:47;;;;;;;1.00;0.90;;;19.60;99.90;;;;;;5036304;28;20387;-77
2021/07/15 04:23:13;;;;;;;5.10;2.70;;;19.50;99.90;;;;;;5035151;28;20389;-77
2021/07/15 04:25:40;;;;;;;1.38;0.80;;;19.60;99.90;;;;;;5035052;28;20402;-77
2021/07/15 04:28:07;;;;;;;4.00;1.50;;;19.50;99.90;;;;;;5034748;28;20386;-77
2021/07/15 04:30:33;;;;;;;1.10;0.80;;;19.60;99.90;;;;;;5035485;28;20499;-77
2021/07/15 04:33:10;;;;;;;4.10;1.10;;;19.60;99.90;;;;;;5035127;28;20391;-77
2021/07/15 04:35:36;;;;;;;1.50;0.60;;;19.70;99.90;;;;;;5035884;28;20413;-77
2021/07/15 04:38:04;;;;;;;1.00;1.00;;;19.70;99.90;;;;;;5036570;28;20394;-78
2021/07/15 04:40:31;;;;;;;1.40;0.70;;;19.70;99.90;;;;;;5037916;28;20387;-77
2021/07/15 04:42:59;;;;;;;1.50;1.30;;;19.90;99.90;;;;;;5038324;28;20386;-77
2021/07/15 04:45:26;;;;;;;2.45;1.42;;;20.10;99.90;;;;;;5038328;28;20411;-77
2021/07/15 04:47:54;;;;;;;5.55;1.27;;;20.20;99.90;;;;;;5038267;28;20776;-78
2021/07/15 04:50:24;;;;;;;0.70;0.60;;;20.40;99.90;;;;;;5037032;28;20950;-77
2021/07/15 04:52:55;;;;;;;1.08;0.77;;;20.50;99.90;;;;;;5036937;28;21008;-77
2021/07/15 04:55:22;;;;;;;0.70;0.60;;;20.40;99.90;;;;;;5037489;28;20383;-75
2021/07/15 04:57:50;;;;;;;0.80;0.80;;;20.40;99.90;;;;;;5037220;28;20393;-75
2021/07/15 05:00:16;;;;;;;2.38;1.63;;;20.40;99.90;;;;;;5037477;28;20398;-75
2021/07/15 05:02:43;;;;;;;2.08;1.10;;;20.40;99.90;;;;;;5037870;28;20387;-76
2021/07/15 05:05:13;;;;;;;1.40;1.30;;;20.40;99.90;;;;;;5037836;28;20494;-76
2021/07/15 05:07:39;;;;;;;1.20;0.90;;;20.50;99.90;;;;;;5037359;28;20737;-76
2021/07/15 05:10:08;;;;;;;0.90;0.70;;;20.50;99.90;;;;;;5036105;28;20384;-75
2021/07/15 05:12:34;;;;;;;8.75;3.78;;;20.50;99.90;;;;;;5035958;28;20390;-75
2021/07/15 05:15:04;;;;;;;5.85;1.55;;;20.40;99.90;;;;;;5035160;28;20752;-76
2021/07/15 05:17:31;;;;;;;1.00;0.90;;;20.40;99.90;;;;;;5035033;28;20406;-76
2021/07/15 05:19:57;;;;;;;1.25;0.85;;;20.30;99.90;;;;;;5034521;28;20437;-77
2021/07/15 05:22:22;;;;;;;0.73;0.52;;;20.40;99.90;;;;;;5034269;28;20395;-76
2021/07/15 05:24:48;;;;;;;2.05;1.52;;;20.40;99.90;;;;;;5033935;28;20769;-76
2021/07/15 05:27:14;;;;;;;1.70;1.20;;;20.50;99.90;;;;;;5033509;28;20391;-76
2021/07/15 05:29:39;;;;;;;2.38;0.88;;;20.50;99.90;;;;;;5034103;28;20791;-76
2021/07/15 05:32:05;;;;;;;1.10;1.00;;;20.50;99.90;;;;;;5032780;28;20395;-77
2021/07/15 05:34:31;;;;;;;2.03;1.48;;;20.60;99.90;;;;;;5016975;28;20904;-76
2021/07/15 05:36:56;;;;;;;6.73;2.10;;;20.50;99.90;;;;;;5034179;28;20449;-76
2021/07/15 05:39:22;;;;;;;1.10;0.90;;;20.50;99.90;;;;;;5033669;28;20474;-75
2021/07/15 05:41:47;;;;;;;1.80;1.60;;;20.60;99.90;;;;;;5033574;28;20387;-76
2021/07/15 05:44:13;;;;;;;5.10;2.80;;;20.60;99.90;;;;;;5033130;28;20415;-75
2021/07/15 05:46:38;;;;;;;1.80;1.30;;;20.60;99.90;;;;;;5033572;28;20391;-76
2021/07/15 05:49:04;;;;;;;2.50;2.30;;;20.70;99.90;;;;;;5032774;28;20445;-76
2021/07/15 05:51:29;;;;;;;3.40;1.98;;;20.80;99.90;;;;;;5032450;28;20399;-76
2021/07/15 05:53:55;;;;;;;8.27;1.90;;;20.80;99.90;;;;;;5032743;28;20410;-76
2021/07/15 05:56:21;;;;;;;4.45;2.75;;;20.80;99.90;;;;;;5033027;28;20523;-75
2021/07/15 05:58:46;;;;;;;3.10;2.50;;;20.80;99.90;;;;;;5032818;28;20453;-76
2021/07/15 06:01:12;;;;;;;3.47;2.07;;;20.80;99.90;;;;;;5032115;28;20879;-76
2021/07/15 06:03:37;;;;;;;2.97;2.40;;;20.90;99.90;;;;;;5032908;28;20383;-76
2021/07/15 06:06:04;;;;;;;3.47;2.60;;;20.90;99.90;;;;;;5031827;28;20438;-76
2021/07/15 06:08:29;;;;;;;1.80;1.70;;;21.10;99.90;;;;;;5031823;28;20768;-75
2021/07/15 06:10:55;;;;;;;5.00;2.13;;;21.20;99.90;;;;;;5032196;28;20389;-76
2021/07/15 06:13:20;;;;;;;12.10;2.50;;;21.40;99.90;;;;;;5031896;28;20383;-76
2021/07/15 06:15:46;;;;;;;2.40;1.75;;;21.50;99.90;;;;;;5031874;28;20383;-76
2021/07/15 06:18:12;;;;;;;1.90;1.70;;;21.60;99.90;;;;;;5032385;28;20955;-76
2021/07/15 06:20:37;;;;;;;3.33;2.90;;;21.60;99.90;;;;;;5031644;28;20390;-75
2021/07/15 06:23:03;;;;;;;4.17;2.73;;;21.60;99.90;;;;;;5031668;28;20766;-76
2021/07/15 06:25:28;;;;;;;3.28;2.35;;;21.60;99.90;;;;;;5033142;28;20438;-76
2021/07/15 06:27:54;;;;;;;2.70;2.00;;;21.50;99.90;;;;;;5031390;28;20798;-76
2021/07/15 06:30:20;;;;;;;3.70;2.30;;;21.60;99.90;;;;;;5031456;28;20387;-76
2021/07/15 06:32:45;;;;;;;2.70;2.00;;;21.60;99.90;;;;;;5031423;28;20371;-77
2021/07/15 06:35:11;;;;;;;7.23;2.77;;;21.60;99.90;;;;;;5016335;28;20387;-76
2021/07/15 06:37:42;;;;;;;4.72;1.30;;;21.70;99.90;;;;;;5035237;28;20864;-76
2021/07/15 06:40:09;;;;;;;2.67;2.13;;;21.70;99.90;;;;;;5031574;28;20792;-76
2021/07/15 06:42:36;;;;;;;1.70;1.00;;;21.70;99.90;;;;;;5031280;28;20401;-75
2021/07/15 06:45:04;;;;;;;2.30;2.00;;;21.50;99.90;;;;;;5031433;28;20403;-76
2021/07/15 06:47:30;;;;;;;2.70;2.00;;;21.40;99.90;;;;;;5034990;28;20383;-75
2021/07/15 06:49:55;;;;;;;1.40;1.20;;;21.40;99.90;;;;;;5033867;28;20410;-75
2021/07/15 06:52:23;;;;;;;3.00;1.20;;;21.40;99.90;;;;;;5034618;28;20429;-77
2021/07/15 06:54:49;;;;;;;2.63;1.52;;;21.40;99.90;;;;;;5033288;28;20391;-75
2021/07/15 06:57:14;;;;;;;4.50;1.80;;;21.40;99.90;;;;;;5032412;28;20533;-76
2021/07/15 06:59:40;;;;;;;2.17;1.40;;;21.50;99.90;;;;;;5031705;28;20425;-75
2021/07/15 07:02:07;;;;;;;4.83;1.80;;;21.50;99.90;;;;;;5032135;28;20480;-76
2021/07/15 07:04:36;;;;;;;1.60;1.50;;;21.40;99.90;;;;;;5031138;28;20411;-76
2021/07/15 07:07:05;;;;;;;5.93;1.53;;;21.40;99.90;;;;;;5031466;28;20387;-75
2021/07/15 07:09:31;;;;;;;1.20;1.10;;;21.40;99.90;;;;;;5031189;28;20390;-75
2021/07/15 07:11:56;;;;;;;4.47;1.30;;;21.50;99.90;;;;;;5030717;28;20509;-75
2021/07/15 07:14:22;;;;;;;3.00;1.20;;;21.60;99.90;;;;;;5031299;28;20486;-76
2021/07/15 07:16:47;;;;;;;1.20;1.03;;;21.70;99.90;;;;;;5031273;28;20399;-77
2021/07/15 07:19:13;;;;;;;4.25;2.08;;;21.70;99.90;;;;;;5030692;28;20430;-76
2021/07/15 07:21:38;;;;;;;1.07;0.90;;;21.80;99.90;;;;;;5031547;28;20799;-76
2021/07/15 07:24:04;;;;;;;1.50;0.90;;;21.80;99.90;;;;;;5030574;28;20722;-76
2021/07/15 07:26:30;;;;;;;1.80;1.10;;;22.00;99.90;;;;;;5030380;28;20387;-76
2021/07/15 07:28:55;;;;;;;1.60;1.00;;;22.10;99.90;;;;;;5030817;28;20413;-77
2021/07/15 07:31:21;;;;;;;8.07;2.17;;;22.40;99.90;;;;;;5030903;28;20460;-77
2021/07/15 07:33:46;;;;;;;1.50;1.20;;;22.60;99.90;;;;;;5030703;28;20390;-77
2021/07/15 07:36:12;;;;;;;2.20;1.20;;;22.90;99.90;;;;;;5031398;28;20401;-76
2021/07/15 07:38:37;;;;;;;4.00;1.20;;;22.90;99.90;;;;;;5031009;28;20406;-78
2021/07/15 07:41:03;;;;;;;1.75;1.33;;;23.00;99.90;;;;;;5030703;28;20398;-76
2021/07/15 07:43:29;;;;;;;1.83;1.42;;;22.90;99.90;;;;;;5013138;28;20472;-76
2021/07/15 07:45:55;;;;;;;1.70;1.60;;;22.80;99.90;;;;;;5030366;28;20916;-77
2021/07/15 07:48:21;;;;;;;1.77;1.60;;;22.70;99.90;;;;;;5012786;28;20590;-77
2021/07/15 07:50:47;;;;;;;2.63;1.30;;;22.90;99.90;;;;;;5030583;28;20397;-76
2021/07/15 07:53:13;;;;;;;1.17;1.00;;;22.90;99.90;;;;;;5030653;28;20963;-76
2021/07/15 07:55:41;;;;;;;4.47;1.95;;;22.90;99.90;;;;;;5033888;28;20823;-77
2021/07/15 07:58:06;;;;;;;1.48;1.38;;;22.90;99.90;;;;;;5034552;28;20390;-76
2021/07/15 08:00:32;;;;;;;2.30;2.10;;;23.10;99.90;;;;;;5035296;28;20391;-77
2021/07/15 08:02:58;;;;;;;2.90;1.95;;;23.40;99.90;;;;;;5034966;28;20458;-76
2021/07/15 08:05:25;;;;;;;3.20;1.30;;;23.50;99.90;;;;;;5034449;28;20418;-76
2021/07/15 08:07:51;;;;;;;1.60;1.48;;;23.70;99.90;;;;;;5034115;28;20390;-75
2021/07/15 08:10:17;;;;;;;3.80;1.45;;;23.50;99.90;;;;;;5034938;28;20437;-77
2021/07/15 08:12:44;;;;;;;1.60;1.40;;;23.30;97.30;;;;;;5016917;28;20426;-77
2021/07/15 08:15:11;;;;;;;2.35;1.38;;;23.30;99.90;;;;;;5035034;28;20792;-76
2021/07/15 08:17:37;;;;;;;1.70;0.90;;;23.20;99.90;;;;;;5036056;28;20445;-78
2021/07/15 08:20:04;;;;;;;1.30;1.20;;;23.20;99.90;;;;;;5037029;28;20822;-77
2021/07/15 08:22:30;;;;;;;2.90;1.80;;;23.30;99.90;;;;;;5036638;28;20394;-77
2021/07/15 08:24:56;;;;;;;7.55;1.70;;;23.50;97.10;;;;;;5036296;28;20402;-77
2021/07/15 08:27:21;;;;;;;4.50;1.70;;;23.90;95.20;;;;;;5018925;28;20884;-78
2021/07/15 08:29:47;;;;;;;1.90;1.70;;;23.80;87.50;;;;;;5018715;28;20788;-78
2021/07/15 08:32:12;;;;;;;2.00;1.77;;;23.70;94.40;;;;;;5036544;28;20427;-77
2021/07/15 08:34:38;;;;;;;2.70;2.20;;;23.60;85.70;;;;;;5036681;28;20456;-77
2021/07/15 08:37:03;;;;;;;2.90;1.90;;;23.40;76.40;;;;;;5019165;28;20387;-78
2021/07/15 08:39:29;;;;;;;2.90;1.60;;;23.20;83.60;;;;;;5036766;28;20387;-78
2021/07/15 08:41:58;;;;;;;4.53;2.07;;;23.10;85.20;;;;;;5036884;28;20444;-77
2021/07/15 08:44:24;;;;;;;1.80;1.70;;;23.00;77.30;;;;;;5034564;28;20438;-77
2021/07/15 08:46:50;;;;;;;2.10;1.80;;;22.90;84.40;;;;;;5034021;28;20721;-77
2021/07/15 08:49:17;;;;;;;3.50;2.20;;;23.00;81.70;;;;;;5034284;28;20473;-77
2021/07/15 08:51:47;;;;;;;2.03;1.83;;;23.00;69.50;;;;;;5015894;28;20387;-77
2021/07/15 08:54:16;;;;;;;2.20;1.50;;;23.20;64.00;;;;;;5016077;28;20958;-77
2021/07/15 08:56:44;;;;;;;5.90;2.60;;;23.70;67.60;;;;;;5033785;28;20452;-77
2021/07/15 08:59:15;;;;;;;2.38;1.33;;;23.60;70.20;;;;;;5034301;28;20392;-77
2021/07/15 09:01:50;;;;;;;2.90;2.43;;;23.60;64.40;;;;;;5033735;28;20821;-77
2021/07/15 09:04:18;;;;;;;4.20;2.80;;;23.60;77.60;;;;;;5033335;28;20410;-76
2021/07/15 09:06:44;;;;;;;13.10;1.77;;;23.70;59.80;;;;;;5032054;28;20383;-76
2021/07/15 09:09:10;;;;;;;2.10;1.40;;;23.40;59.10;;;;;;5032996;28;20871;-76
2021/07/15 09:11:37;;;;;;;2.70;1.48;;;23.40;72.60;;;;;;5033167;28;20783;-77
2021/07/15 09:14:15;;;;;;;2.00;1.48;;;23.60;79.90;;;;;;5033425;28;20817;-77
2021/07/15 09:16:55;;;;;;;4.03;2.25;;;23.50;59.70;;;;;;5033357;28;20407;-78
2021/07/15 09:19:25;;;;;;;4.10;2.03;;;23.50;73.70;;;;;;5033178;28;20449;-75
2021/07/15 09:21:52;;;;;;;5.90;1.77;;;23.80;47.60;;;;;;5032998;28;20398;-77
2021/07/15 09:24:39;;;;;;;3.40;1.43;;;23.80;51.20;;;;;;5033529;28;20404;-76
2021/07/15 09:27:25;;;;;;;2.72;1.30;;;23.90;50.60;;;;;;5032735;28;20383;-77
2021/07/15 09:30:12;;;;;;;2.08;1.40;;;24.00;43.20;;;;;;5032791;28;20391;-77
2021/07/15 09:33:01;;;;;;;1.30;1.00;;;24.10;47.50;;;;;;5015174;28;20387;-78
2021/07/15 09:35:34;;;;;;;0.88;0.80;;;24.20;38.70;;;;;;5033104;28;20472;-77
2021/07/15 09:38:22;;;;;;;2.58;1.38;;;24.40;52.40;;;;;;5033548;28;20943;-77
2021/07/15 09:40:57;;;;;;;1.00;0.75;;;24.80;45.40;;;;;;5032349;28;20411;-77
2021/07/15 09:43:38;;;;;;;2.55;1.65;;;25.10;38.60;;;;;;5032499;28;20394;-76
2021/07/15 09:46:12;;;;;;;3.13;2.28;;;25.20;42.40;;;;;;5032451;28;20434;-77
2021/07/15 09:48:42;;;;;;;3.17;1.10;;;25.20;49.10;;;;;;5033823;28;20405;-77
2021/07/15 09:51:10;;;;;;;1.20;0.90;;;25.20;46.90;;;;;;5034365;28;20399;-77
2021/07/15 09:53:36;;;;;;;5.00;2.30;;;24.70;34.90;;;;;;5033042;28;20383;-77
2021/07/15 09:56:06;;;;;;;2.92;1.58;;;24.20;37.90;;;;;;5032978;28;20387;-76
2021/07/15 09:58:32;;;;;;;10.17;6.80;;;23.60;39.00;;;;;;5034121;28;20489;-76
2021/07/15 10:01:04;;;;;;;18.15;11.18;;;23.50;44.50;;;;;;5032886;28;20383;-76
2021/07/15 10:03:34;;;;;;;12.57;10.70;;;23.20;49.20;;;;;;5032172;28;20485;-77
2021/07/15 10:06:02;;;;;;;13.95;10.55;;;23.10;40.50;;;;;;5032311;28;20418;-76
2021/07/15 10:08:33;;;;;;;13.25;10.75;;;23.30;47.70;;;;;;5015015;28;20406;-77
2021/07/15 10:11:28;;;;;;;16.43;9.87;;;23.60;46.80;;;;;;5032505;28;20837;-77
2021/07/15 10:14:00;;;;;;;12.02;9.13;;;23.90;47.50;;;;;;5037745;28;20371;-76
2021/07/15 10:16:30;;;;;;;11.85;8.65;;;24.30;33.90;;;;;;5036992;28;20395;-76
2021/07/15 10:18:56;;;;;;;13.30;10.07;;;24.60;34.40;;;;;;5031726;28;20391;-77
2021/07/15 10:21:30;;;;;;;10.75;9.70;;;24.80;35.40;;;;;;5031730;28;20740;-77
2021/07/15 10:23:57;;;;;;;13.00;10.17;;;24.90;35.80;;;;;;5031640;28;20383;-77
2021/07/15 10:26:23;;;;;;;13.05;10.25;;;25.00;32.70;;;;;;5031845;28;20387;-76
2021/07/15 10:28:51;;;;;;;9.95;8.95;;;25.40;31.80;;;;;;5032018;28;20383;-77
2021/07/15 10:31:20;;;;;;;14.65;9.60;;;25.60;29.40;;;;;;5031598;28;20383;-78
2021/07/15 10:33:46;;;;;;;10.40;9.35;;;25.60;29.40;;;;;;5031909;28;20391;-77
2021/07/15 10:36:13;;;;;;;11.53;9.23;;;25.50;31.60;;;;;;5032262;28;20864;-78
2021/07/15 10:38:44;;;;;;;14.60;9.30;;;25.50;30.10;;;;;;5031828;28;20454;-76
2021/07/15 10:41:11;;;;;;;11.90;9.43;;;25.50;30.90;;;;;;5030777;28;20879;-77
2021/07/15 10:43:38;;;;;;;12.30;9.32;;;25.40;30.80;;;;;;5031471;28;20387;-78
2021/07/15 10:46:08;;;;;;;12.63;9.20;;;25.10;30.20;;;;;;5030987;28;20465;-77
2021/07/15 10:48:38;;;;;;;9.93;8.63;;;24.80;32.20;;;;;;5033875;28;20464;-77
2021/07/15 10:51:05;;;;;;;8.45;7.55;;;24.80;30.60;;;;;;5033086;28;20464;-77
2021/07/15 10:53:35;;;;;;;8.23;7.28;;;24.70;29.40;;;;;;5033119;28;20523;-76
2021/07/15 10:56:02;;;;;;;7.53;6.82;;;24.50;29.80;;;;;;5032631;28;20376;-77
2021/07/15 10:58:44;;;;;;;8.50;7.43;;;24.20;31.40;;;;;;5031921;28;20485;-76
2021/07/15 11:01:35;;;;;;;12.95;7.78;;;23.90;32.70;;;;;;5030899;28;20383;-77
2021/07/15 11:04:05;;;;;;;7.30;6.10;;;23.70;34.30;;;;;;5013404;28;20391;-77
2021/07/15 11:06:48;;;;;;;10.13;6.40;;;23.50;35.60;;;;;;5031277;28;20440;-78
2021/07/15 11:09:23;;;;;;;10.25;6.95;;;23.40;36.40;;;;;;5032507;28;20890;-76
2021/07/15 11:11:48;;;;;;;8.38;6.95;;;23.30;35.90;;;;;;5033667;28;20395;-76
2021/07/15 11:14:47;;;;;;;8.52;7.38;;;23.50;36.30;;;;;;5034673;28;20389;-77
2021/07/15 11:17:21;;;;;;;7.95;7.10;;;23.80;36.30;;;;;;5032619;28;20395;-77
2021/07/15 11:19:56;;;;;;;7.10;6.40;;;24.60;32.60;;;;;;5032816;28;20391;-78
2021/07/15 11:22:58;;;;;;;10.35;7.70;;;25.10;31.00;;;;;;5033441;28;20457;-78
2021/07/15 11:25:27;;;;;;;13.57;7.00;;;25.60;29.40;;;;;;4984503;28;20407;-78
2021/07/15 11:27:59;;;;;;;8.00;6.70;;;25.90;28.80;;;;;;5032518;28;20383;-76
2021/07/15 11:30:36;;;;;;;8.32;7.45;;;26.00;26.30;;;;;;5013548;28;20426;-78
2021/07/15 11:33:23;;;;;;;8.30;7.50;;;26.00;27.00;;;;;;5032006;28;20824;-77
2021/07/15 11:36:00;;;;;;;11.60;8.15;;;25.80;28.80;;;;;;5032387;28;20477;-78
2021/07/15 11:38:28;;;;;;;11.03;9.23;;;25.50;27.80;;;;;;5016568;28;20387;-79
2021/07/15 11:41:00;;;;;;;11.15;9.30;;;25.20;30.00;;;;;;5034026;28;20872;-79
2021/07/15 11:43:34;;;;;;;11.40;9.33;;;25.00;29.70;;;;;;5034876;28;20470;-77
2021/07/15 11:46:09;;;;;;;14.60;9.65;;;25.00;29.60;;;;;;5032215;28;20461;-77
2021/07/15 11:48:52;;;;;;;17.73;11.60;;;24.90;30.00;;;;;;5013806;28;20437;-76
2021/07/15 11:51:43;;;;;;;13.43;11.65;;;24.90;30.20;;;;;;5030673;28;20463;-77
2021/07/15 11:54:27;;;;;;;15.60;12.20;;;24.90;30.40;;;;;;5030850;28;20918;-76
2021/07/15 11:57:12;;;;;;;14.40;12.68;;;24.50;32.00;;;;;;5030329;28;20390;-76
2021/07/15 12:00:05;;;;;;;21.03;14.50;;;24.30;31.90;;;;;;5013066;28;20812;-77
2021/07/15 12:02:39;;;;;;;17.10;14.80;;;24.60;32.20;;;;;;5030549;28;20383;-75
2021/07/15 12:05:32;;;;;;;18.88;15.00;;;24.60;31.20;;;;;;5031326;28;20465;-77
2021/07/15 12:08:06;;;;;;;22.13;17.27;;;24.30;32.20;;;;;;5030839;28;20912;-77
2021/07/15 12:10:35;;;;;;;24.40;17.37;;;24.30;32.70;;;;;;5031703;28;20873;-78
2021/07/15 12:13:05;;;;;;;22.48;17.92;;;24.20;33.50;;;;;;5030886;28;20393;-76
2021/07/15 12:15:32;;;;;;;22.47;18.03;;;24.20;33.50;;;;;;5031101;28;20429;-77
2021/07/15 12:18:01;;;;;;;23.15;17.35;;;24.20;32.80;;;;;;5013534;28;20387;-76
2021/07/15 12:20:42;;;;;;;20.40;15.40;;;24.20;33.60;;;;;;5013264;28;20469;-76
2021/07/15 12:23:32;;;;;;;20.52;15.75;;;24.00;33.80;;;;;;5031017;28;20923;-77
2021/07/15 12:25:59;;;;;;;26.35;16.90;;;24.00;34.00;;;;;;5031360;28;20417;-76
2021/07/15 12:28:28;;;;;;;23.38;16.52;;;24.20;33.80;;;;;;5030906;28;20379;-76
2021/07/15 12:31:08;;;;;;;22.83;16.20;;;24.30;32.50;;;;;;5031797;28;20876;-78
2021/07/15 12:33:39;;;;;;;26.88;17.75;;;24.80;32.80;;;;;;5014673;28;20383;-77
2021/07/15 12:36:19;;;;;;;28.27;18.58;;;25.20;32.70;;;;;;5033202;28;20850;-77
2021/07/15 12:38:50;;;;;;;35.35;20.10;;;25.40;32.90;;;;;;5033025;28;20378;-77
2021/07/15 12:41:23;;;;;;;33.90;19.65;;;25.50;32.70;;;;;;5033684;28;20383;-76
2021/07/15 12:43:48;;;;;;;35.40;20.35;;;25.50;33.10;;;;;;5035581;28;20387;-77
2021/07/15 12:46:17;;;;;;;31.20;20.87;;;25.60;31.80;;;;;;5035622;28;20406;-77
2021/07/15 12:48:49;;;;;;;36.40;20.38;;;25.60;31.30;;;;;;5034372;28;20383;-76
2021/07/15 12:51:16;;;;;;;37.13;20.55;;;25.70;31.10;;;;;;5033950;28;20379;-76
2021/07/15 12:53:45;;;;;;;29.10;20.08;;;25.70;29.80;;;;;;5033917;28;20445;-77
2021/07/15 12:56:16;;;;;;;31.25;19.90;;;25.90;30.20;;;;;;5033835;28;20414;-76